This is the latest recevied weather packets stored in our database for station/object EA1IOK-13. If no packets are shown the sender has not sent any weather packets the latest 10 day(s).
| Time | Temp. | Humidity | Pressure | Rain* | Wind** | Luminosity | Snow |
|---|---|---|---|---|---|---|---|
| 1777689188 | 12.22° C | 92% | 1016.4 hPa | 0 mm | - | - | - |
| 1777688287 | 12.22° C | 92% | 1016.4 hPa | 0 mm | - | - | - |
| 1777687388 | 12.22° C | 92% | 1016.5 hPa | 0 mm | - | - | - |
| 1777685589 | 12.78° C | 88% | 1016.9 hPa | 0 mm | - | - | - |
| 1777683787 | 13.89° C | 84% | 1017.2 hPa | 0 mm | - | - | - |
| 1777682887 | 13.89° C | 86% | 1017.4 hPa | 0 mm | - | - | - |
| 1777681988 | 13.89° C | 87% | 1017.4 hPa | 0 mm | - | - | - |
| 1777681088 | 13.89° C | 86% | 1017.5 hPa | 0 mm | - | - | - |
| 1777680187 | 14.44° C | 80% | 1017.5 hPa | 0 mm | - | - | - |
| 1777679289 | 13.89° C | 84% | 1017.8 hPa | 0 mm | - | - | - |
| 1777678389 | 14.44° C | 84% | 1017.8 hPa | 0 mm | - | - | - |
| 1777677488 | 14.44° C | 84% | 1018 hPa | 0 mm | - | - | - |
| 1777676589 | 14.44° C | 84% | 1017.9 hPa | 0 mm | - | - | - |
| 1777675688 | 14.44° C | 83% | 1018 hPa | 0 mm | - | - | - |
| 1777672988 | 14.44° C | 83% | 1017.9 hPa | 0 mm | - | - | - |
| 1777672088 | 15° C | 82% | 1018.1 hPa | 0 mm | - | - | - |
| 1777670288 | 15° C | 81% | 1018.1 hPa | 0 mm | - | - | - |
| 1777668489 | 15.56° C | 80% | 1017.9 hPa | 0 mm | - | - | - |
| 1777666687 | 16.11° C | 79% | 1017.7 hPa | 0 mm | - | - | - |
| 1777665788 | 16.11° C | 79% | 1017.7 hPa | 0 mm | - | - | - |
| 1777664887 | 16.67° C | 78% | 1017.3 hPa | 0 mm | - | - | - |
| 1777663089 | 17.78° C | 76% | 1016.8 hPa | 0 mm | - | - | - |
| 1777662189 | 18.33° C | 74% | 1016.7 hPa | 0 mm | - | - | - |
| 1777661289 | 18.89° C | 73% | 1016.6 hPa | 0 mm | - | - | - |
| 1777660387 | 19.44° C | 71% | 1016.5 hPa | 0 mm | - | - | - |
* Rain latest hour (hover to see other rain measurements)
** Current wind speed in m/s (hover to see current wind gust speed)